Time;durP1;ratioP1;P1;durP2;ratioP2;P2;SDS_P1;SDS_P2;PMS_P1;PMS_P2;Temp;Humidity;BMP_temperature;BMP_pressure;BME280_temperature;BME280_humidity;BME280_pressure;Samples;Min_cycle;Max_cycle;Signal;HPM_P1;HPM_P2
2021/12/04 04:03:06;;;;;;;10.32;6.63;;;4.10;92.70;;;;;;5091610;28;20105;-47
2021/12/04 04:05:31;;;;;;;9.45;6.55;;;4.10;92.50;;;;;;5090729;28;20058;-50
2021/12/04 04:07:57;;;;;;;8.45;6.43;;;4.20;92.50;;;;;;5091087;28;20021;-50
2021/12/04 04:10:23;;;;;;;8.40;6.00;;;4.30;92.30;;;;;;5091148;28;20016;-50
2021/12/04 04:12:49;;;;;;;7.45;5.47;;;4.40;92.00;;;;;;5090935;28;20089;-49
2021/12/04 04:15:15;;;;;;;8.55;6.15;;;4.50;91.60;;;;;;5090699;28;20023;-54
2021/12/04 04:17:42;;;;;;;6.78;5.47;;;4.30;91.40;;;;;;5090859;28;20111;-51
2021/12/04 04:20:14;;;;;;;5.57;4.88;;;4.30;91.50;;;;;;5091052;28;20020;-53
2021/12/04 04:22:40;;;;;;;6.07;4.45;;;4.40;91.70;;;;;;5090877;28;20160;-50
2021/12/04 04:25:08;;;;;;;5.35;4.80;;;4.40;91.50;;;;;;5091475;28;20020;-48
2021/12/04 04:27:34;;;;;;;5.13;4.60;;;4.30;91.40;;;;;;5090872;28;20029;-50
2021/12/04 04:29:59;;;;;;;8.27;4.53;;;4.40;91.40;;;;;;5090485;28;20028;-48
2021/12/04 04:32:25;;;;;;;9.77;5.07;;;4.50;90.90;;;;;;5089333;28;20016;-52
2021/12/04 04:34:54;;;;;;;7.55;4.60;;;4.50;90.90;;;;;;5090675;28;20487;-50
2021/12/04 04:37:37;;;;;;;5.20;4.15;;;4.60;90.80;;;;;;5090268;28;20025;-51
2021/12/04 05:13:25;;;;;;;5.15;4.32;;;4.50;90.30;;;;;;5058549;28;20372;-47
2021/12/04 05:21:03;;;;;;;6.35;4.50;;;4.60;90.40;;;;;;5075535;28;20035;-49
2021/12/04 05:23:30;;;;;;;6.18;4.18;;;4.60;90.20;;;;;;5076025;28;20476;-51
2021/12/04 05:25:57;;;;;;;6.75;4.25;;;4.70;89.80;;;;;;5075804;28;20029;-48
2021/12/04 05:28:23;;;;;;;5.60;4.43;;;4.60;90.00;;;;;;5075407;28;20029;-49
2021/12/04 05:30:49;;;;;;;6.18;4.22;;;4.60;90.00;;;;;;5075889;28;20373;-48
2021/12/04 05:33:15;;;;;;;5.75;4.20;;;4.70;90.30;;;;;;5075814;28;20148;-49
2021/12/04 05:35:41;;;;;;;4.90;4.40;;;4.80;90.20;;;;;;5075689;28;20101;-48
2021/12/04 05:38:06;;;;;;;8.73;4.38;;;4.80;89.40;;;;;;5076102;28;20056;-51
2021/12/04 05:40:32;;;;;;;7.38;4.80;;;4.80;89.20;;;;;;5075379;28;20059;-49
2021/12/04 05:43:02;;;;;;;5.38;3.78;;;4.80;89.10;;;;;;5075525;28;20032;-49
2021/12/04 05:45:32;;;;;;;5.78;4.43;;;4.80;88.90;;;;;;5075927;28;20029;-47
2021/12/04 05:53:26;;;;;;;7.95;4.85;;;4.80;89.30;;;;;;5075787;28;20097;-48
2021/12/04 05:55:55;;;;;;;6.30;4.45;;;4.70;89.10;;;;;;5075352;28;20029;-47
2021/12/04 05:58:27;;;;;;;11.33;4.43;;;4.80;89.10;;;;;;5075262;28;20036;-49
2021/12/04 06:00:57;;;;;;;5.10;4.32;;;4.90;89.30;;;;;;5075127;28;20259;-51
2021/12/04 06:03:23;;;;;;;6.03;4.43;;;4.90;88.70;;;;;;5075074;28;20048;-49
2021/12/04 06:05:48;;;;;;;6.43;4.28;;;4.80;88.40;;;;;;5074747;28;20024;-48
2021/12/04 06:08:14;;;;;;;7.57;5.03;;;4.70;88.90;;;;;;5074824;28;20059;-50
2021/12/04 06:10:40;;;;;;;7.95;4.47;;;4.80;89.10;;;;;;5075382;28;20095;-49
2021/12/04 06:13:06;;;;;;;6.88;4.85;;;4.70;89.10;;;;;;5074682;28;20036;-48
2021/12/04 06:15:32;;;;;;;7.57;4.95;;;4.80;89.20;;;;;;5074994;28;20028;-48
2021/12/04 06:17:58;;;;;;;9.50;4.80;;;4.70;89.40;;;;;;5073356;28;20020;-51
2021/12/04 06:23:08;;;;;;;8.13;4.30;;;4.60;89.50;;;;;;5074839;28;20384;-49
2021/12/04 06:25:35;;;;;;;5.80;4.53;;;4.70;89.40;;;;;;5073776;28;20403;-48
2021/12/04 06:28:01;;;;;;;5.15;4.05;;;4.80;89.50;;;;;;5074483;28;20024;-52
2021/12/04 06:30:27;;;;;;;5.82;4.63;;;4.70;89.50;;;;;;5074440;28;20063;-49
2021/12/04 06:32:54;;;;;;;6.18;4.78;;;4.90;88.90;;;;;;5074503;28;20025;-49
2021/12/04 06:35:21;;;;;;;8.55;5.93;;;4.80;88.80;;;;;;5074486;28;20020;-49
2021/12/04 06:37:48;;;;;;;5.90;4.35;;;4.70;89.20;;;;;;5074244;28;20035;-49
2021/12/04 06:40:16;;;;;;;7.18;4.78;;;4.90;89.00;;;;;;5074574;28;20032;-52
2021/12/04 06:42:43;;;;;;;5.85;4.65;;;4.80;88.90;;;;;;5074210;28;20029;-53
2021/12/04 06:45:10;;;;;;;6.78;4.13;;;4.80;88.80;;;;;;5074308;28;20036;-51
2021/12/04 06:47:38;;;;;;;7.75;4.63;;;4.80;88.70;;;;;;5074514;28;20020;-51
2021/12/04 06:50:15;;;;;;;4.50;3.92;;;4.80;88.70;;;;;;5072799;28;20021;-49
2021/12/04 06:52:44;;;;;;;6.88;4.45;;;4.70;89.10;;;;;;5074362;28;20056;-50
2021/12/04 06:55:11;;;;;;;9.70;5.55;;;4.60;89.40;;;;;;5074116;28;20025;-50
2021/12/04 06:57:39;;;;;;;6.93;4.88;;;4.80;88.90;;;;;;5074949;28;20044;-53
2021/12/04 07:00:09;;;;;;;13.60;5.05;;;4.70;89.10;;;;;;5074136;28;20032;-50
2021/12/04 07:02:35;;;;;;;7.05;4.82;;;4.70;89.40;;;;;;5074210;28;20055;-52
2021/12/04 07:05:00;;;;;;;9.98;5.03;;;4.80;89.40;;;;;;5072719;28;20107;-53
2021/12/04 07:07:26;;;;;;;7.55;5.00;;;4.80;89.20;;;;;;5074464;28;20400;-51
2021/12/04 07:09:52;;;;;;;11.57;5.53;;;4.80;89.10;;;;;;5074566;28;20487;-48
2021/12/04 07:12:17;;;;;;;7.57;5.05;;;4.90;89.00;;;;;;5073089;28;20033;-48
2021/12/04 07:14:43;;;;;;;7.38;5.40;;;4.80;89.00;;;;;;5073641;28;20377;-49
2021/12/04 07:17:09;;;;;;;5.90;4.45;;;5.00;88.20;;;;;;5073534;28;20060;-50
2021/12/04 07:19:35;;;;;;;6.00;4.93;;;4.80;88.10;;;;;;5073629;28;20114;-48
2021/12/04 07:22:03;;;;;;;5.65;4.53;;;4.80;89.00;;;;;;5073521;28;20025;-49
2021/12/04 07:24:31;;;;;;;9.00;5.07;;;4.90;88.50;;;;;;5073199;28;20021;-51
2021/12/04 07:26:57;;;;;;;5.07;4.43;;;4.90;88.70;;;;;;5072707;28;20115;-48
2021/12/04 07:29:23;;;;;;;11.35;5.55;;;5.00;88.30;;;;;;5073302;28;20028;-50
2021/12/04 07:31:48;;;;;;;7.25;4.95;;;5.10;88.30;;;;;;5073167;28;20059;-47
2021/12/04 07:34:14;;;;;;;7.95;4.50;;;5.00;88.00;;;;;;5073448;28;20385;-48
2021/12/04 07:36:40;;;;;;;5.78;4.20;;;4.90;88.10;;;;;;5072481;28;20440;-50
2021/12/04 07:39:06;;;;;;;6.55;4.38;;;4.90;88.50;;;;;;5073330;28;20056;-50
2021/12/04 07:41:32;;;;;;;5.15;4.38;;;4.90;88.20;;;;;;5072969;28;20031;-51
2021/12/04 07:43:57;;;;;;;9.98;5.80;;;5.00;88.20;;;;;;5073550;28;20017;-50
2021/12/04 07:46:23;;;;;;;6.82;3.92;;;5.00;88.10;;;;;;5071746;28;20048;-50
2021/12/04 07:48:49;;;;;;;5.78;4.13;;;4.80;88.20;;;;;;5073019;28;20028;-53
2021/12/04 07:51:17;;;;;;;6.40;4.55;;;4.90;88.50;;;;;;5071802;28;20472;-50
2021/12/04 07:53:46;;;;;;;7.05;5.03;;;4.80;88.50;;;;;;5073140;28;20485;-49
2021/12/04 07:56:13;;;;;;;5.03;4.20;;;4.90;88.60;;;;;;5073734;28;20021;-49
2021/12/04 07:58:40;;;;;;;6.18;4.47;;;4.90;88.20;;;;;;5072787;28;20111;-50
2021/12/04 14:03:06;;;;;;;5.35;4.57;;;5.60;87.90;;;;;;5011329;28;20174;-53
2021/12/04 14:05:31;;;;;;;5.90;4.53;;;5.70;88.40;;;;;;5026126;28;20030;-48
2021/12/04 14:08:00;;;;;;;9.27;5.50;;;5.60;88.60;;;;;;5010842;28;20517;-53
2021/12/04 14:10:32;;;;;;;6.25;4.40;;;5.60;88.80;;;;;;5010649;28;20117;-54
2021/12/04 14:12:59;;;;;;;6.93;4.72;;;5.60;89.30;;;;;;5011010;28;20034;-52
2021/12/04 14:15:26;;;;;;;10.30;5.07;;;5.60;89.50;;;;;;5010643;28;20061;-49
2021/12/04 14:17:58;;;;;;;7.55;5.82;;;5.60;89.80;;;;;;5010394;28;20026;-52
2021/12/04 14:20:24;;;;;;;6.18;4.80;;;5.70;90.10;;;;;;5010152;28;20084;-49
2021/12/04 14:22:53;;;;;;;6.60;4.22;;;5.80;89.60;;;;;;5010027;28;20048;-48
2021/12/04 14:25:20;;;;;;;4.90;4.05;;;5.70;89.30;;;;;;5010658;28;20026;-49
2021/12/04 14:27:47;;;;;;;6.07;4.38;;;5.60;89.80;;;;;;5009887;28;20513;-49
2021/12/04 14:30:19;;;;;;;5.90;4.88;;;5.50;89.80;;;;;;5009922;28;20029;-48
2021/12/04 14:32:52;;;;;;;7.18;5.25;;;5.50;90.30;;;;;;5009953;28;20038;-50
2021/12/04 14:35:19;;;;;;;9.38;5.80;;;5.80;89.70;;;;;;5010233;28;20430;-50
2021/12/04 14:37:50;;;;;;;9.32;6.75;;;5.60;89.60;;;;;;5010177;28;20073;-50
2021/12/04 14:40:20;;;;;;;6.30;4.80;;;5.60;90.40;;;;;;5010011;28;20105;-48
2021/12/04 14:42:47;;;;;;;9.63;5.50;;;5.50;90.70;;;;;;5010114;28;20130;-48
2021/12/04 14:45:20;;;;;;;7.72;5.32;;;5.50;90.90;;;;;;5009830;28;20041;-49
2021/12/04 14:47:49;;;;;;;9.88;4.90;;;5.40;91.40;;;;;;5010166;28;20038;-48
2021/12/04 14:50:17;;;;;;;7.85;5.45;;;5.30;91.90;;;;;;4992235;28;20037;-50
2021/12/04 14:52:49;;;;;;;7.63;5.72;;;5.40;92.10;;;;;;5009722;28;20034;-52
2021/12/04 14:55:20;;;;;;;8.95;5.97;;;5.40;92.10;;;;;;5010062;28;20072;-54
2021/12/04 14:57:46;;;;;;;11.73;6.15;;;5.40;92.10;;;;;;5010039;28;20042;-52
2021/12/04 15:00:16;;;;;;;12.60;6.25;;;5.30;92.30;;;;;;5009437;28;20429;-49
2021/12/04 15:02:59;;;;;;;10.93;6.95;;;5.20;92.80;;;;;;5009705;28;20129;-47
2021/12/04 15:05:40;;;;;;;14.65;7.70;;;5.30;92.90;;;;;;5010044;28;20183;-50
2021/12/04 15:08:17;;;;;;;13.32;8.52;;;5.30;93.10;;;;;;5009475;28;20101;-49
2021/12/04 15:10:48;;;;;;;16.10;8.85;;;5.30;93.10;;;;;;5009368;28;20033;-49
2021/12/04 15:13:22;;;;;;;13.75;9.13;;;5.30;93.30;;;;;;5003122;28;20118;-49
2021/12/04 15:15:50;;;;;;;13.05;8.40;;;5.30;93.40;;;;;;4996349;28;20073;-48
2021/12/04 15:18:19;;;;;;;16.02;8.75;;;5.30;93.60;;;;;;4995788;28;20042;-49
2021/12/04 15:21:17;;;;;;;13.98;8.77;;;5.30;93.60;;;;;;4994617;28;20045;-48
2021/12/04 15:23:45;;;;;;;11.85;8.32;;;5.30;93.60;;;;;;4995525;28;20038;-50
2021/12/04 15:26:19;;;;;;;12.30;8.18;;;5.20;93.70;;;;;;4996265;28;20370;-52
2021/12/04 15:28:49;;;;;;;15.60;8.80;;;5.20;93.70;;;;;;4994683;28;20030;-48
2021/12/04 15:31:16;;;;;;;13.63;8.88;;;5.20;93.80;;;;;;4995624;28;20038;-51
2021/12/04 15:33:46;;;;;;;15.82;10.75;;;5.10;93.90;;;;;;4995804;28;20064;-47
2021/12/04 15:36:24;;;;;;;14.25;10.57;;;5.20;93.90;;;;;;4996343;28;20034;-48
2021/12/04 15:38:52;;;;;;;16.40;9.88;;;5.30;94.10;;;;;;4996393;28;20053;-50
2021/12/04 15:55:06;;;;;;;13.02;7.88;;;5.10;93.60;;;;;;4995111;28;20029;-47
2021/12/04 15:57:33;;;;;;;15.73;8.50;;;5.10;93.70;;;;;;4995646;28;20034;-49
2021/12/04 16:00:05;;;;;;;13.77;9.55;;;5.20;93.60;;;;;;4995671;28;20390;-48
2021/12/04 16:02:38;;;;;;;17.48;8.35;;;5.20;93.50;;;;;;4993996;28;20052;-47
2021/12/04 16:05:18;;;;;;;12.43;8.57;;;5.10;93.60;;;;;;4998354;28;20530;-52
2021/12/04 16:07:49;;;;;;;13.77;9.20;;;5.10;93.80;;;;;;4996172;28;20408;-50
2021/12/04 16:10:21;;;;;;;12.93;8.45;;;5.10;93.70;;;;;;4996750;28;20269;-49
2021/12/04 16:12:54;;;;;;;13.15;8.60;;;5.20;93.60;;;;;;4995476;28;20045;-53
2021/12/04 16:15:21;;;;;;;21.30;11.35;;;5.20;93.60;;;;;;4995925;28;20018;-52
2021/12/04 16:17:46;;;;;;;15.00;10.20;;;5.00;93.80;;;;;;4995728;28;20202;-49
2021/12/04 16:20:16;;;;;;;14.00;9.45;;;5.10;93.90;;;;;;4996154;28;20062;-49
2021/12/04 16:22:42;;;;;;;14.00;10.52;;;5.20;93.90;;;;;;4995690;28;20068;-50
2021/12/04 16:25:14;;;;;;;12.75;8.80;;;5.10;93.80;;;;;;4994046;28;20462;-48
2021/12/04 16:35:23;;;;;;;13.85;8.07;;;5.00;94.00;;;;;;4995195;28;20387;-49
2021/12/04 16:37:49;;;;;;;16.35;8.75;;;5.00;94.10;;;;;;4994789;28;20026;-49
2021/12/04 16:40:23;;;;;;;15.23;9.25;;;5.10;94.00;;;;;;4995416;28;20368;-51
2021/12/04 16:43:01;;;;;;;13.15;7.75;;;5.10;94.00;;;;;;4994681;28;20037;-49
2021/12/04 16:45:29;;;;;;;17.00;9.77;;;5.00;93.90;;;;;;4994855;28;20065;-48
2021/12/04 16:47:59;;;;;;;17.00;9.57;;;5.20;94.00;;;;;;4995135;28;20034;-48
2021/12/04 16:50:29;;;;;;;14.05;8.00;;;5.20;93.90;;;;;;4994841;28;20035;-50
2021/12/04 16:56:02;;;;;;;12.18;8.38;;;5.10;93.80;;;;;;4993561;28;20438;-52
2021/12/04 16:58:29;;;;;;;13.75;8.60;;;5.00;94.10;;;;;;4994781;28;20026;-53
2021/12/04 17:00:55;;;;;;;17.35;9.30;;;5.10;94.30;;;;;;4993009;28;20041;-51
2021/12/04 17:03:21;;;;;;;20.05;9.93;;;5.10;94.20;;;;;;4994416;28;20072;-48
2021/12/04 17:05:48;;;;;;;18.15;9.35;;;5.00;94.30;;;;;;4994386;28;20030;-49
2021/12/04 17:08:14;;;;;;;20.45;13.00;;;5.10;94.40;;;;;;4994639;28;20027;-50
2021/12/04 17:10:40;;;;;;;20.63;11.27;;;5.20;94.30;;;;;;4994655;28;20359;-52
2021/12/04 17:13:07;;;;;;;21.05;11.95;;;5.20;94.30;;;;;;4994607;28;20049;-52
2021/12/04 17:15:33;;;;;;;23.42;13.02;;;5.10;94.40;;;;;;4994592;28;20048;-48
2021/12/04 17:18:02;;;;;;;22.00;13.05;;;5.10;94.50;;;;;;4992723;28;20037;-49
2021/12/04 17:20:28;;;;;;;24.90;12.48;;;5.10;94.60;;;;;;4993351;28;20101;-50
2021/12/04 17:22:56;;;;;;;22.13;12.43;;;5.10;94.80;;;;;;4994352;28;20030;-52
2021/12/04 17:25:23;;;;;;;21.67;12.38;;;5.20;94.80;;;;;;4994234;28;20065;-51
2021/12/04 17:27:49;;;;;;;15.75;10.80;;;5.10;94.80;;;;;;4993724;28;20105;-52
2021/12/04 17:30:17;;;;;;;18.95;13.82;;;5.10;94.90;;;;;;4994020;28;20093;-49
2021/12/04 17:32:43;;;;;;;23.13;12.18;;;5.20;95.10;;;;;;4993775;28;20041;-50
2021/12/04 17:35:11;;;;;;;26.15;15.10;;;5.20;95.00;;;;;;4993910;28;20031;-50
2021/12/04 17:37:36;;;;;;;28.63;16.50;;;5.20;95.30;;;;;;4992159;28;20026;-49
2021/12/04 17:40:06;;;;;;;22.05;13.38;;;5.20;95.40;;;;;;4993736;28;20088;-50
2021/12/04 17:42:37;;;;;;;25.50;14.77;;;5.20;95.30;;;;;;4994125;28;20541;-52
2021/12/04 17:45:05;;;;;;;25.88;16.08;;;5.20;95.20;;;;;;4994005;28;20269;-51
2021/12/04 17:47:31;;;;;;;22.02;15.50;;;5.20;95.30;;;;;;4994118;28;20409;-51
2021/12/04 17:49:58;;;;;;;24.55;14.07;;;5.20;95.20;;;;;;4992094;28;20090;-50
2021/12/04 17:52:25;;;;;;;24.45;15.95;;;5.20;95.00;;;;;;4993688;28;20155;-52
2021/12/04 17:54:50;;;;;;;21.65;14.45;;;5.30;94.90;;;;;;4993461;28;20106;-51
2021/12/04 17:57:16;;;;;;;16.20;10.73;;;5.30;94.70;;;;;;4993867;28;20177;-50
2021/12/04 17:59:44;;;;;;;20.90;13.40;;;5.30;94.40;;;;;;4993613;28;20034;-53
2021/12/04 18:02:14;;;;;;;15.57;10.80;;;5.40;94.40;;;;;;4993414;28;20407;-54
2021/12/04 18:04:45;;;;;;;14.83;11.13;;;5.30;94.00;;;;;;4993886;28;20034;-52
2021/12/04 18:07:22;;;;;;;15.23;10.25;;;5.30;93.70;;;;;;4993787;28;20033;-54
2021/12/04 18:09:49;;;;;;;13.02;7.78;;;5.40;93.50;;;;;;4993838;28;20031;-52
2021/12/04 18:12:37;;;;;;;13.32;8.20;;;5.40;92.80;;;;;;4993731;28;20035;-54
2021/12/04 18:15:16;;;;;;;14.40;8.55;;;5.40;92.60;;;;;;4993743;28;20073;-53
2021/12/04 18:17:42;;;;;;;12.50;6.93;;;5.40;93.00;;;;;;4992407;28;20044;-51
2021/12/04 18:20:08;;;;;;;10.27;7.03;;;5.40;93.10;;;;;;4992178;28;20041;-49
2021/12/04 18:22:33;;;;;;;14.10;6.57;;;5.30;93.50;;;;;;4993826;28;20370;-52
2021/12/04 18:24:59;;;;;;;7.50;4.97;;;5.30;93.70;;;;;;4994133;28;20030;-49
2021/12/04 18:27:25;;;;;;;7.95;3.92;;;5.30;93.70;;;;;;4993179;28;20026;-50
2021/12/04 18:29:52;;;;;;;8.32;5.35;;;5.20;93.80;;;;;;4992249;28;20141;-53
2021/12/04 18:32:17;;;;;;;10.25;6.43;;;5.30;93.80;;;;;;4993122;28;20031;-52
2021/12/04 18:34:43;;;;;;;10.00;5.25;;;5.30;93.50;;;;;;4992361;28;20037;-54
2021/12/04 18:37:12;;;;;;;12.60;6.18;;;5.30;93.30;;;;;;4994417;28;20026;-51
2021/12/04 18:39:37;;;;;;;9.57;5.72;;;5.40;93.30;;;;;;4993876;28;20070;-51
2021/12/04 18:42:06;;;;;;;11.27;6.18;;;5.30;93.40;;;;;;4994141;28;20054;-53
2021/12/04 18:44:32;;;;;;;9.38;5.53;;;5.40;93.50;;;;;;4993849;28;20026;-50
2021/12/04 18:46:59;;;;;;;11.70;6.65;;;5.40;93.40;;;;;;4994062;28;20081;-51
2021/12/04 18:49:25;;;;;;;12.60;6.82;;;5.30;93.60;;;;;;4995178;28;20022;-53
2021/12/04 18:51:53;;;;;;;11.90;6.72;;;5.30;93.70;;;;;;4997697;28;20514;-52
2021/12/04 18:54:19;;;;;;;15.75;8.88;;;5.30;93.90;;;;;;4997053;28;20066;-53
2021/12/04 18:56:45;;;;;;;14.27;9.65;;;5.30;93.80;;;;;;4995403;28;20542;-54
2021/12/04 18:59:11;;;;;;;13.90;9.23;;;5.30;93.90;;;;;;4995591;28;20117;-50
2021/12/04 19:01:37;;;;;;;15.48;10.57;;;5.30;93.80;;;;;;4996596;28;20046;-51
2021/12/04 19:04:05;;;;;;;27.10;14.77;;;5.30;94.00;;;;;;4996752;28;20098;-54
2021/12/04 19:06:33;;;;;;;24.70;13.10;;;5.30;94.10;;;;;;4996874;28;20386;-51
2021/12/04 19:08:59;;;;;;;28.25;16.20;;;5.30;93.90;;;;;;4997008;28;20034;-53
2021/12/04 19:11:25;;;;;;;22.73;15.50;;;5.30;93.90;;;;;;4996626;28;20038;-55
2021/12/04 19:13:53;;;;;;;25.52;14.80;;;5.40;93.80;;;;;;4996712;28;20023;-51
2021/12/04 19:16:19;;;;;;;28.95;16.35;;;5.40;93.60;;;;;;4996631;28;20403;-51
2021/12/04 19:18:45;;;;;;;24.02;12.05;;;5.40;93.40;;;;;;4996744;28;20069;-50
2021/12/04 19:21:12;;;;;;;29.25;14.85;;;5.40;93.50;;;;;;4997294;28;20428;-56
2021/12/04 19:23:49;;;;;;;23.30;15.35;;;5.50;93.50;;;;;;4997101;28;20058;-52
2021/12/04 19:26:16;;;;;;;21.38;14.13;;;5.50;93.60;;;;;;4997169;28;20076;-56
2021/12/04 19:28:42;;;;;;;18.23;11.15;;;5.50;93.40;;;;;;4995839;28;20465;-52
2021/12/04 19:31:14;;;;;;;22.10;9.40;;;5.50;93.20;;;;;;4996723;28;20026;-49
2021/12/04 19:52:45;;;;;;;14.60;5.03;;;5.40;91.90;;;;;;4996811;28;20115;-40
2021/12/04 19:55:13;;;;;;;17.50;5.53;;;5.40;91.70;;;;;;4996830;28;20027;-39
2021/12/04 19:57:45;;;;;;;16.85;5.53;;;5.40;91.70;;;;;;4996493;28;20023;-40
2021/12/04 20:00:19;;;;;;;11.00;3.90;;;5.30;92.00;;;;;;4996044;28;20058;-41
2021/12/04 20:03:02;;;;;;;5.63;3.00;;;5.30;92.10;;;;;;4995980;28;20053;-39
2021/12/04 20:15:54;;;;;;;16.50;5.13;;;5.00;92.20;;;;;;4996050;28;20157;-42
2021/12/04 20:18:20;;;;;;;8.65;4.72;;;5.00;92.40;;;;;;4995832;28;20109;-42
2021/12/04 20:20:52;;;;;;;15.90;6.50;;;5.00;92.50;;;;;;4978191;28;20022;-40
2021/12/04 20:23:23;;;;;;;18.80;6.35;;;5.00;92.40;;;;;;4995594;28;20038;-39
2021/12/04 20:26:00;;;;;;;18.05;8.02;;;5.00;92.50;;;;;;4978629;28;20026;-40
2021/12/04 20:28:50;;;;;;;24.90;8.15;;;5.10;92.60;;;;;;4995336;28;20037;-39
2021/12/04 20:31:33;;;;;;;14.65;6.47;;;5.10;92.50;;;;;;4995282;28;20034;-39
2021/12/04 21:09:02;;;;;;;28.98;11.93;;;4.80;92.90;;;;;;4995029;28;20450;-40
2021/12/04 21:51:44;;;;;;;19.38;8.23;;;4.90;91.70;;;;;;4994601;28;20030;-40
2021/12/04 21:54:10;;;;;;;14.43;8.47;;;4.90;91.40;;;;;;4992830;28;20027;-40
2021/12/04 22:10:19;;;;;;;19.17;10.05;;;5.00;91.00;;;;;;4994972;28;20093;-39
2021/12/04 22:15:41;;;;;;;22.83;9.85;;;5.10;90.80;;;;;;4994323;28;20117;-39
2021/12/04 22:58:51;;;;;;;16.92;5.75;;;5.10;89.60;;;;;;4997744;28;20064;-40
